Terminal Aerodrome Forecast
Issued by NWS Bismarck, ND

Home | Current Version | Previous Version | Text Only | Print | Product List | Glossary On
Versions: 1 2 3 4 5 6 7 8 9 10 11 12 13 14 15 16 17 18 19 20 21
000
FTUS43 KBIS 180200 AAA
TAFISN
TAF AMD
KISN 180248Z 1803/1824 12010KT P6SM BKN120
     FM180700 12014KT P6SM VCSH BKN060 OVC120
     FM181400 13015G25KT P6SM BKN070 OVC100
     FM182200 14014KT P6SM -SHRA BKN090=

USA.gov is the U.S. government's official web portal to all federal, state and local government web resources and services.